Time;durP1;ratioP1;P1;durP2;ratioP2;P2;SDS_P1;SDS_P2;PMS_P1;PMS_P2;Temp;Humidity;BMP_temperature;BMP_pressure;BME280_temperature;BME280_humidity;BME280_pressure;Samples;Min_cycle;Max_cycle;Signal;HPM_P1;HPM_P2
2021/07/20 00:00:06;;;;;;;11.00;3.95;;;;;;;;;;5029206;28;20052;-59
2021/07/20 00:02:37;;;;;;;9.23;4.03;;;;;;;;;;5027143;28;20087;-59
2021/07/20 00:05:03;;;;;;;7.68;3.78;;;;;;;;;;5029424;28;20120;-59
2021/07/20 00:07:28;;;;;;;8.52;3.40;;;;;;;;;;5028650;28;20046;-60
2021/07/20 00:09:54;;;;;;;11.55;4.72;;;;;;;;;;5026231;28;20025;-59
2021/07/20 00:12:22;;;;;;;7.75;4.05;;;;;;;;;;5026759;28;20044;-59
2021/07/20 00:14:50;;;;;;;8.55;3.83;;;;;;;;;;5029811;28;22057;-59
2021/07/20 00:17:27;;;;;;;10.35;4.07;;;;;;;;;;5029066;28;20033;-58
2021/07/20 00:19:55;;;;;;;7.25;3.75;;;;;;;;;;5028363;28;20099;-59
2021/07/20 00:22:20;;;;;;;9.45;4.15;;;;;;;;;;5028341;28;20041;-61
2021/07/20 00:24:46;;;;;;;8.38;4.07;;;;;;;;;;5025613;28;20060;-59
2021/07/20 00:27:11;;;;;;;13.23;4.47;;;;;;;;;;5046178;28;20068;-59
2021/07/20 00:29:39;;;;;;;11.52;4.03;;;;;;;;;;5026997;28;20134;-59
2021/07/20 00:32:07;;;;;;;6.57;3.80;;;;;;;;;;5029529;28;20052;-59
2021/07/20 00:34:34;;;;;;;7.88;4.15;;;;;;;;;;5012271;28;20885;-58
2021/07/20 00:37:02;;;;;;;8.60;3.63;;;;;;;;;;5026911;28;20098;-58
2021/07/20 00:39:30;;;;;;;7.38;4.03;;;;;;;;;;5026331;28;20140;-59
2021/07/20 00:41:57;;;;;;;9.52;5.07;;;;;;;;;;5026762;28;20041;-60
2021/07/20 00:44:23;;;;;;;9.27;4.00;;;;;;;;;;5029086;28;20391;-59
2021/07/20 00:46:50;;;;;;;7.95;3.97;;;;;;;;;;5017079;28;20041;-59
2021/07/20 00:49:20;;;;;;;9.00;4.10;;;;;;;;;;5026513;28;20050;-60
2021/07/20 00:51:45;;;;;;;9.05;3.80;;;;;;;;;;5016402;28;20114;-59
2021/07/20 00:54:15;;;;;;;9.38;4.35;;;;;;;;;;5015175;28;20190;-59
2021/07/20 00:56:44;;;;;;;8.70;3.95;;;;;;;;;;5028204;28;20045;-59
2021/07/20 00:59:11;;;;;;;11.73;4.45;;;;;;;;;;5028354;28;20033;-59
2021/07/20 01:01:40;;;;;;;10.30;4.10;;;;;;;;;;5029508;28;20369;-59
2021/07/20 01:04:17;;;;;;;11.73;4.47;;;;;;;;;;5028611;28;20016;-59
2021/07/20 01:06:48;;;;;;;6.75;4.10;;;;;;;;;;5029111;28;20021;-59
2021/07/20 01:09:19;;;;;;;9.40;4.68;;;;;;;;;;5029892;28;20036;-59
2021/07/20 01:11:45;;;;;;;7.70;4.13;;;;;;;;;;5032943;28;20108;-60
2021/07/20 01:14:13;;;;;;;9.20;3.85;;;;;;;;;;5034498;28;20037;-59
2021/07/20 01:16:39;;;;;;;12.25;4.78;;;;;;;;;;5034197;28;20079;-58
2021/07/20 01:19:09;;;;;;;6.78;4.32;;;;;;;;;;5031480;28;20468;-60
2021/07/20 01:21:38;;;;;;;10.43;4.43;;;;;;;;;;5033384;28;20048;-60
2021/07/20 01:24:08;;;;;;;10.57;4.45;;;;;;;;;;5033037;28;20122;-60
2021/07/20 01:26:33;;;;;;;6.78;3.67;;;;;;;;;;5028646;28;20663;-58
2021/07/20 01:29:00;;;;;;;10.82;5.15;;;;;;;;;;5032139;28;20118;-59
2021/07/20 01:31:28;;;;;;;9.05;4.15;;;;;;;;;;5020835;28;20056;-60
2021/07/20 01:33:57;;;;;;;7.85;4.05;;;;;;;;;;5031536;28;20036;-58
2021/07/20 01:36:25;;;;;;;10.40;4.72;;;;;;;;;;5032584;28;20859;-59
2021/07/20 01:38:51;;;;;;;10.10;4.18;;;;;;;;;;5031435;28;20554;-59
2021/07/20 01:41:19;;;;;;;10.30;4.03;;;;;;;;;;5019875;28;20148;-58
2021/07/20 01:43:50;;;;;;;10.95;5.22;;;;;;;;;;5029861;28;20036;-59
2021/07/20 01:46:16;;;;;;;9.80;4.60;;;;;;;;;;5030435;28;20047;-60
2021/07/20 01:48:45;;;;;;;8.95;4.07;;;;;;;;;;5034020;28;20639;-59
2021/07/20 01:51:13;;;;;;;9.05;4.55;;;;;;;;;;5022018;28;20028;-60
2021/07/20 01:53:40;;;;;;;7.57;3.53;;;;;;;;;;5033772;28;20905;-59
2021/07/20 01:56:06;;;;;;;11.43;4.07;;;;;;;;;;5034016;28;20502;-58
2021/07/20 01:58:45;;;;;;;11.82;4.97;;;;;;;;;;5034703;28;20072;-59
2021/07/20 02:01:16;;;;;;;9.32;4.47;;;;;;;;;;5031097;28;20032;-58
2021/07/20 02:09:08;;;;;;;10.77;4.70;;;;;;;;;;5031733;28;20033;-59
2021/07/20 02:11:39;;;;;;;8.88;4.00;;;;;;;;;;5018661;28;20349;-61
2021/07/20 02:14:08;;;;;;;11.65;4.45;;;;;;;;;;5032051;28;20040;-59
2021/07/20 02:16:38;;;;;;;9.63;4.45;;;;;;;;;;5019053;28;20037;-60
2021/07/20 02:19:10;;;;;;;11.52;5.03;;;;;;;;;;5030777;28;20380;-59
2021/07/20 02:21:41;;;;;;;9.95;4.85;;;;;;;;;;5032924;28;20064;-59
2021/07/20 02:24:12;;;;;;;13.07;4.60;;;;;;;;;;5032898;28;20542;-59
2021/07/20 02:26:39;;;;;;;9.52;4.40;;;;;;;;;;5032275;28;20044;-58
2021/07/20 02:29:10;;;;;;;12.80;4.88;;;;;;;;;;5028286;28;20033;-58
2021/07/20 02:31:38;;;;;;;9.20;4.28;;;;;;;;;;5031840;28;20131;-61
2021/07/20 02:34:04;;;;;;;9.05;4.30;;;;;;;;;;5030680;28;20058;-59
2021/07/20 02:36:30;;;;;;;14.32;4.97;;;;;;;;;;5030565;28;20056;-58
2021/07/20 02:38:58;;;;;;;16.60;4.93;;;;;;;;;;5032437;28;20032;-60
2021/07/20 02:41:31;;;;;;;10.88;4.85;;;;;;;;;;5009957;28;20973;-60
2021/07/20 02:43:57;;;;;;;12.38;4.95;;;;;;;;;;5031284;28;20060;-59
2021/07/20 02:46:23;;;;;;;10.07;4.35;;;;;;;;;;5031061;28;20033;-60
2021/07/20 02:48:51;;;;;;;16.80;5.85;;;;;;;;;;5009917;28;20037;-59
2021/07/20 02:51:20;;;;;;;13.02;5.15;;;;;;;;;;5032499;28;20120;-59
2021/07/20 02:53:50;;;;;;;12.15;4.78;;;;;;;;;;5012771;28;20041;-58
2021/07/20 02:56:18;;;;;;;16.92;5.40;;;;;;;;;;5029454;28;20579;-62
2021/07/20 02:58:50;;;;;;;12.07;5.35;;;;;;;;;;5020342;28;20037;-58
2021/07/20 03:01:19;;;;;;;12.27;5.07;;;;;;;;;;5029778;28;20116;-60
2021/07/20 03:03:44;;;;;;;12.48;5.75;;;;;;;;;;5029395;28;20108;-59
2021/07/20 03:06:16;;;;;;;16.73;5.32;;;;;;;;;;5032849;28;20029;-59
2021/07/20 03:08:47;;;;;;;11.35;5.03;;;;;;;;;;5029482;28;20074;-59
2021/07/20 03:11:14;;;;;;;10.55;5.25;;;;;;;;;;5030320;28;20090;-58
2021/07/20 03:13:45;;;;;;;10.07;4.53;;;;;;;;;;5029817;28;20029;-60
2021/07/20 03:16:16;;;;;;;12.95;5.15;;;;;;;;;;5031462;28;20036;-59
2021/07/20 03:18:43;;;;;;;12.32;5.65;;;;;;;;;;5030106;28;20087;-59
2021/07/20 03:21:16;;;;;;;13.07;5.00;;;;;;;;;;5027282;28;20021;-59
2021/07/20 03:23:44;;;;;;;13.43;5.65;;;;;;;;;;5031189;28;20125;-59
2021/07/20 03:26:13;;;;;;;12.70;5.32;;;;;;;;;;5018598;28;20592;-59
2021/07/20 03:28:44;;;;;;;15.82;6.55;;;;;;;;;;5029589;28;20386;-58
2021/07/20 03:31:11;;;;;;;14.95;5.68;;;;;;;;;;5031114;28;20028;-60
2021/07/20 03:33:38;;;;;;;13.32;5.22;;;;;;;;;;5029338;28;20050;-59
2021/07/20 03:36:04;;;;;;;15.65;5.47;;;;;;;;;;5029161;28;20036;-59
2021/07/20 03:38:32;;;;;;;14.73;5.65;;;;;;;;;;5029331;28;20033;-59
2021/07/20 03:40:58;;;;;;;10.77;4.90;;;;;;;;;;5031203;28;20032;-59
2021/07/20 03:43:26;;;;;;;12.45;5.72;;;;;;;;;;5027787;28;20037;-59
2021/07/20 03:45:52;;;;;;;17.63;5.68;;;;;;;;;;5031269;28;20052;-58
2021/07/20 03:48:20;;;;;;;12.80;5.50;;;;;;;;;;5031031;28;20045;-60
2021/07/20 03:50:47;;;;;;;12.15;5.15;;;;;;;;;;5029510;28;20124;-59
2021/07/20 03:53:18;;;;;;;9.93;4.80;;;;;;;;;;5030665;28;20039;-59
2021/07/20 03:59:19;;;;;;;14.65;5.78;;;;;;;;;;5026662;28;20040;-59
2021/07/20 04:01:48;;;;;;;13.00;5.65;;;;;;;;;;5029446;28;20736;-59
2021/07/20 04:04:17;;;;;;;16.10;6.03;;;;;;;;;;5029760;28;20032;-59
2021/07/20 04:06:46;;;;;;;11.50;5.53;;;;;;;;;;5028860;28;20032;-58
2021/07/20 04:09:15;;;;;;;11.98;5.97;;;;;;;;;;5030854;28;20132;-59
2021/07/20 04:11:44;;;;;;;11.98;5.25;;;;;;;;;;5030883;28;20033;-59
2021/07/20 04:14:12;;;;;;;16.05;6.45;;;;;;;;;;5028481;28;20968;-59
2021/07/20 04:16:42;;;;;;;14.90;6.68;;;;;;;;;;5030977;28;20043;-60
2021/07/20 04:19:13;;;;;;;11.07;5.50;;;;;;;;;;5030001;28;20036;-59
2021/07/20 04:21:41;;;;;;;11.93;5.38;;;;;;;;;;5029527;28;22123;-59
2021/07/20 04:24:10;;;;;;;12.80;5.80;;;;;;;;;;5028672;28;20033;-59
2021/07/20 04:26:42;;;;;;;13.75;5.53;;;;;;;;;;5013799;28;20029;-59
2021/07/20 04:29:16;;;;;;;13.05;5.97;;;;;;;;;;5029352;28;20227;-60
2021/07/20 04:31:42;;;;;;;10.25;5.45;;;;;;;;;;5032049;28;20056;-58
2021/07/20 04:34:11;;;;;;;13.50;5.65;;;;;;;;;;5003178;28;20025;-60
2021/07/20 04:36:41;;;;;;;17.42;6.40;;;;;;;;;;5029608;28;20028;-60
2021/07/20 04:39:10;;;;;;;13.68;6.00;;;;;;;;;;5028128;28;20466;-59
2021/07/20 04:41:38;;;;;;;11.95;5.85;;;;;;;;;;5028637;28;20052;-59
2021/07/20 04:44:06;;;;;;;15.32;6.18;;;;;;;;;;5009798;28;20044;-60
2021/07/20 04:50:10;;;;;;;10.27;5.10;;;;;;;;;;5030361;28;20044;-59
2021/07/20 04:52:36;;;;;;;14.18;4.97;;;;;;;;;;5029398;28;20636;-61
2021/07/20 04:55:40;;;;;;;14.55;5.70;;;;;;;;;;5028926;28;20025;-60
2021/07/20 04:58:08;;;;;;;11.40;4.97;;;;;;;;;;5027122;28;20052;-59
2021/07/20 05:00:34;;;;;;;10.13;5.28;;;;;;;;;;5027893;28;20039;-59
2021/07/20 05:03:05;;;;;;;13.73;5.95;;;;;;;;;;5028236;28;20040;-59
2021/07/20 05:05:37;;;;;;;12.18;5.45;;;;;;;;;;5028751;28;20057;-59
2021/07/20 05:08:06;;;;;;;13.90;5.47;;;;;;;;;;5030529;28;20029;-59
2021/07/20 05:10:32;;;;;;;12.23;5.13;;;;;;;;;;5013972;28;20033;-59
2021/07/20 05:12:58;;;;;;;9.02;4.65;;;;;;;;;;5029296;28;21205;-59
2021/07/20 05:19:02;;;;;;;15.57;5.72;;;;;;;;;;5029227;28;20131;-59
2021/07/20 05:21:32;;;;;;;9.85;4.68;;;;;;;;;;5030554;28;20033;-59
2021/07/20 05:24:22;;;;;;;12.88;5.50;;;;;;;;;;5028582;28;20112;-59
2021/07/20 05:26:54;;;;;;;11.77;6.13;;;;;;;;;;5027472;28;20112;-59
2021/07/20 05:29:20;;;;;;;10.90;5.15;;;;;;;;;;4996836;28;20292;-58
2021/07/20 05:31:48;;;;;;;15.45;6.00;;;;;;;;;;5045575;28;20452;-58
2021/07/20 05:34:15;;;;;;;11.73;4.78;;;;;;;;;;5017463;28;20104;-58
2021/07/20 05:36:41;;;;;;;11.52;5.57;;;;;;;;;;5032788;28;20115;-59
2021/07/20 05:39:06;;;;;;;17.33;6.05;;;;;;;;;;5027938;28;20189;-59
2021/07/20 05:41:36;;;;;;;15.02;5.28;;;;;;;;;;5043611;28;20116;-58
2021/07/20 05:44:04;;;;;;;13.18;5.78;;;;;;;;;;5009747;28;20028;-59
2021/07/20 05:46:34;;;;;;;11.38;5.38;;;;;;;;;;5029206;28;20512;-58
2021/07/20 05:49:00;;;;;;;12.05;5.35;;;;;;;;;;5029495;28;20601;-59
2021/07/20 05:51:26;;;;;;;8.85;4.93;;;;;;;;;;4994659;28;20091;-58
2021/07/20 05:53:52;;;;;;;10.43;5.05;;;;;;;;;;5028520;28;20974;-59
2021/07/20 05:56:49;;;;;;;12.35;5.35;;;;;;;;;;5031971;28;20045;-58
2021/07/20 05:59:19;;;;;;;13.25;5.18;;;;;;;;;;5013111;28;20455;-60
2021/07/20 06:01:45;;;;;;;9.95;4.88;;;;;;;;;;5032294;28;20106;-59
2021/07/20 06:04:13;;;;;;;13.88;5.30;;;;;;;;;;5031140;28;20029;-59
2021/07/20 06:06:44;;;;;;;12.68;4.95;;;;;;;;;;5029459;28;20111;-59
2021/07/20 06:09:12;;;;;;;11.40;5.03;;;;;;;;;;5031846;28;20586;-59
2021/07/20 06:11:40;;;;;;;12.23;4.88;;;;;;;;;;5030600;28;20082;-59
2021/07/20 06:14:08;;;;;;;11.60;5.38;;;;;;;;;;5030264;28;20058;-60
2021/07/20 06:16:39;;;;;;;10.60;4.80;;;;;;;;;;5030440;28;20056;-58
2021/07/20 06:19:05;;;;;;;11.43;5.22;;;;;;;;;;5032237;28;20037;-59
2021/07/20 06:21:35;;;;;;;10.63;4.57;;;;;;;;;;5047883;28;20029;-60
2021/07/20 06:27:37;;;;;;;8.55;4.60;;;;;;;;;;5031253;28;22114;-59
2021/07/20 06:30:06;;;;;;;8.98;5.22;;;;;;;;;;5030533;28;20029;-59
2021/07/20 06:32:32;;;;;;;9.18;5.22;;;;;;;;;;5030731;28;20069;-59
2021/07/20 06:34:58;;;;;;;8.38;4.78;;;;;;;;;;5028704;28;20140;-60
2021/07/20 06:37:25;;;;;;;9.25;4.80;;;;;;;;;;5032622;28;20033;-60
2021/07/20 06:39:55;;;;;;;8.98;4.78;;;;;;;;;;5029666;28;20049;-60
2021/07/20 06:42:25;;;;;;;11.90;4.85;;;;;;;;;;5030100;28;20056;-60
2021/07/20 06:45:01;;;;;;;8.70;4.97;;;;;;;;;;5018082;28;21016;-59
2021/07/20 06:47:28;;;;;;;13.13;4.95;;;;;;;;;;5032500;28;20515;-60
2021/07/20 06:50:00;;;;;;;9.50;5.00;;;;;;;;;;5028814;28;20544;-59
2021/07/20 06:52:26;;;;;;;11.77;4.85;;;;;;;;;;5031102;28;20024;-59
2021/07/20 06:54:54;;;;;;;11.55;5.05;;;;;;;;;;5033401;28;20044;-59
2021/07/20 06:57:21;;;;;;;13.82;5.47;;;;;;;;;;5031327;28;20162;-59
2021/07/20 06:59:50;;;;;;;8.73;4.88;;;;;;;;;;5029382;28;20041;-60
2021/07/20 07:02:19;;;;;;;9.60;5.20;;;;;;;;;;5032005;28;20021;-60
2021/07/20 07:04:52;;;;;;;13.68;4.90;;;;;;;;;;5030225;28;20577;-61
2021/07/20 07:07:19;;;;;;;11.18;5.03;;;;;;;;;;5016042;28;20045;-60
2021/07/20 07:09:48;;;;;;;7.75;4.53;;;;;;;;;;5028616;28;20148;-60
2021/07/20 07:12:17;;;;;;;7.05;4.38;;;;;;;;;;5030154;28;20051;-61
2021/07/20 07:14:43;;;;;;;9.82;4.43;;;;;;;;;;5030592;28;20388;-61
2021/07/20 07:17:09;;;;;;;5.45;3.95;;;;;;;;;;5029833;28;20035;-62
2021/07/20 07:19:35;;;;;;;7.75;3.97;;;;;;;;;;5026723;28;22042;-61
2021/07/20 07:22:01;;;;;;;7.47;4.22;;;;;;;;;;5013517;28;20122;-62
2021/07/20 07:24:38;;;;;;;6.90;4.00;;;;;;;;;;5030448;28;20151;-62
2021/07/20 07:27:04;;;;;;;7.95;3.70;;;;;;;;;;5029241;28;20099;-61
2021/07/20 07:29:33;;;;;;;5.72;3.38;;;;;;;;;;5031191;28;20044;-62
2021/07/20 07:35:33;;;;;;;7.45;4.00;;;;;;;;;;4981555;28;20049;-61
2021/07/20 07:37:59;;;;;;;6.72;3.83;;;;;;;;;;4991166;28;20038;-61
2021/07/20 07:40:26;;;;;;;5.53;3.50;;;;;;;;;;4966025;28;20100;-61
2021/07/20 07:42:56;;;;;;;5.57;3.65;;;;;;;;;;4975023;28;20030;-61
2021/07/20 07:45:27;;;;;;;5.97;3.30;;;;;;;;;;4981038;28;20466;-61
2021/07/20 07:48:08;;;;;;;5.60;3.40;;;;;;;;;;4979477;28;20030;-61
2021/07/20 07:54:10;;;;;;;5.93;3.28;;;;;;;;;;4981325;28;20642;-61
2021/07/20 07:56:37;;;;;;;5.85;3.70;;;;;;;;;;4982702;28;21881;-62
2021/07/20 07:59:25;;;;;;;5.60;3.25;;;;;;;;;;4966697;28;20037;-61
2021/07/20 08:01:51;;;;;;;7.50;3.08;;;;;;;;;;4982755;28;20121;-61
2021/07/20 08:04:23;;;;;;;4.45;2.85;;;;;;;;;;4982063;28;20033;-61
2021/07/20 08:06:49;;;;;;;3.85;2.25;;;;;;;;;;4982003;28;20152;-61
2021/07/20 08:09:20;;;;;;;3.40;2.53;;;;;;;;;;4981646;28;20193;-61
2021/07/20 08:11:46;;;;;;;3.83;2.90;;;;;;;;;;4982325;28;20046;-61
2021/07/20 08:14:16;;;;;;;4.07;2.28;;;;;;;;;;4962992;28;20105;-61
2021/07/20 08:19:58;;;;;;;3.28;2.40;;;;;;;;;;4981067;28;20041;-61
2021/07/20 08:22:30;;;;;;;3.90;1.70;;;;;;;;;;4980407;28;20046;-61
2021/07/20 08:25:06;;;;;;;2.83;2.00;;;;;;;;;;4982756;28;20793;-61
2021/07/20 08:27:50;;;;;;;3.60;2.30;;;;;;;;;;4960279;28;20164;-61
2021/07/20 08:30:15;;;;;;;4.20;2.30;;;;;;;;;;4981228;28;20038;-62
2021/07/20 08:32:48;;;;;;;3.38;2.33;;;;;;;;;;4979794;28;20056;-62
2021/07/20 08:35:18;;;;;;;3.33;2.28;;;;;;;;;;5031059;28;20049;-61
2021/07/20 08:37:44;;;;;;;3.72;2.28;;;;;;;;;;5029623;28;20779;-61
2021/07/20 08:40:27;;;;;;;2.92;2.58;;;;;;;;;;5046071;28;20029;-61
2021/07/20 08:43:12;;;;;;;3.03;2.17;;;;;;;;;;5026267;28;20235;-62
2021/07/20 08:45:43;;;;;;;3.45;2.55;;;;;;;;;;5029586;28;20028;-61
2021/07/20 08:48:17;;;;;;;3.78;2.58;;;;;;;;;;5015078;28;20029;-62
2021/07/20 08:50:51;;;;;;;4.70;2.90;;;;;;;;;;5029844;28;20037;-60
2021/07/20 08:53:31;;;;;;;5.10;2.83;;;;;;;;;;5029110;28;20025;-60
2021/07/20 08:55:58;;;;;;;6.32;2.95;;;;;;;;;;5030068;28;20060;-60
2021/07/20 08:58:32;;;;;;;7.00;2.38;;;;;;;;;;5028953;28;20935;-60
2021/07/20 09:01:11;;;;;;;3.50;2.78;;;;;;;;;;5029317;28;20052;-62
2021/07/20 09:03:45;;;;;;;5.15;2.47;;;;;;;;;;5029366;28;20098;-60
2021/07/20 09:06:36;;;;;;;4.25;3.00;;;;;;;;;;5017533;28;20055;-61
2021/07/20 09:09:10;;;;;;;2.92;2.03;;;;;;;;;;5019063;28;21916;-61
2021/07/20 09:11:39;;;;;;;2.88;1.98;;;;;;;;;;5029869;28;20021;-61
2021/07/20 09:14:17;;;;;;;2.08;1.83;;;;;;;;;;5025877;28;20040;-61
2021/07/20 09:16:44;;;;;;;2.75;1.90;;;;;;;;;;5030085;28;20136;-61
2021/07/20 09:19:27;;;;;;;2.03;1.80;;;;;;;;;;5032231;28;20037;-62
2021/07/20 09:21:53;;;;;;;;;;;;;;;;;;5028419;28;20032;-62
2021/07/20 09:24:31;;;;;;;2.13;1.77;;;;;;;;;;5031185;28;20383;-61
2021/07/20 09:30:20;;;;;;;2.45;2.25;;;;;;;;;;5033936;28;20037;-61
2021/07/20 09:32:56;;;;;;;2.80;2.13;;;;;;;;;;5020725;28;20032;-61
2021/07/20 09:35:43;;;;;;;4.53;2.60;;;;;;;;;;5031431;28;20068;-62
2021/07/20 09:38:19;;;;;;;4.15;2.60;;;;;;;;;;5032554;28;20041;-61
2021/07/20 09:40:54;;;;;;;3.78;2.55;;;;;;;;;;5003903;28;20511;-61
2021/07/20 09:43:44;;;;;;;2.47;1.88;;;;;;;;;;5030648;28;20093;-61
2021/07/20 09:50:07;;;;;;;4.45;2.28;;;;;;;;;;5032242;28;20036;-62
2021/07/20 09:52:40;;;;;;;3.63;2.50;;;;;;;;;;5032750;28;20506;-61
2021/07/20 09:58:46;;;;;;;3.42;2.72;;;;;;;;;;5030949;28;20122;-61
2021/07/20 10:01:20;;;;;;;2.88;2.08;;;;;;;;;;5034666;28;20037;-61
2021/07/20 10:04:17;;;;;;;4.47;2.47;;;;;;;;;;5033541;28;20032;-62
2021/07/20 10:06:45;;;;;;;3.08;2.20;;;;;;;;;;5032921;28;20078;-62
2021/07/20 10:09:29;;;;;;;5.03;2.70;;;;;;;;;;5018962;28;20037;-62
2021/07/20 10:12:18;;;;;;;4.18;2.13;;;;;;;;;;5030011;28;20029;-62
2021/07/20 10:14:48;;;;;;;3.67;2.10;;;;;;;;;;5032327;28;20033;-60
2021/07/20 10:17:30;;;;;;;4.60;2.63;;;;;;;;;;5031430;28;20021;-61
2021/07/20 10:20:10;;;;;;;2.90;1.95;;;;;;;;;;5030653;28;20041;-61
2021/07/20 10:22:51;;;;;;;3.15;2.45;;;;;;;;;;5027864;28;20056;-61
2021/07/20 10:25:49;;;;;;;3.28;2.33;;;;;;;;;;5033349;28;20024;-61
2021/07/20 10:28:18;;;;;;;2.75;2.17;;;;;;;;;;4996719;28;20072;-62
2021/07/20 10:30:50;;;;;;;3.58;2.40;;;;;;;;;;5013430;28;20052;-62
2021/07/20 10:33:29;;;;;;;4.85;2.03;;;;;;;;;;5031023;28;20119;-61
2021/07/20 10:36:23;;;;;;;3.65;2.10;;;;;;;;;;5014463;28;20063;-61
2021/07/20 10:38:52;;;;;;;3.47;2.33;;;;;;;;;;5027089;28;20040;-62
2021/07/20 10:41:27;;;;;;;3.53;1.58;;;;;;;;;;5030980;28;20029;-61
2021/07/20 10:44:01;;;;;;;6.35;2.22;;;;;;;;;;5032918;28;20024;-62
2021/07/20 10:46:34;;;;;;;3.85;2.30;;;;;;;;;;5029827;28;20301;-62
2021/07/20 10:49:02;;;;;;;3.28;2.22;;;;;;;;;;5031863;28;20021;-61
2021/07/20 10:51:31;;;;;;;3.72;2.30;;;;;;;;;;5029178;28;20037;-61
2021/07/20 10:54:07;;;;;;;3.60;2.15;;;;;;;;;;5029166;28;20029;-61
2021/07/20 11:00:08;;;;;;;2.47;1.95;;;;;;;;;;5029608;28;20135;-62
2021/07/20 11:02:39;;;;;;;3.30;2.10;;;;;;;;;;5030837;28;20033;-62
2021/07/20 11:05:12;;;;;;;2.35;1.95;;;;;;;;;;5031826;28;20107;-62
2021/07/20 11:07:42;;;;;;;3.30;2.20;;;;;;;;;;5031359;28;20143;-61
2021/07/20 11:10:38;;;;;;;5.85;1.83;;;;;;;;;;5032970;28;20116;-62
2021/07/20 11:13:07;;;;;;;4.60;2.22;;;;;;;;;;4997091;28;20065;-62
2021/07/20 11:15:37;;;;;;;1.85;1.63;;;;;;;;;;5014158;28;20025;-61
2021/07/20 11:18:25;;;;;;;3.33;2.10;;;;;;;;;;5029251;28;20475;-61
2021/07/20 11:24:03;;;;;;;4.45;2.17;;;;;;;;;;5027941;28;20041;-61
2021/07/20 11:26:34;;;;;;;2.47;1.65;;;;;;;;;;5031126;28;20749;-61
2021/07/20 11:29:36;;;;;;;5.03;1.80;;;;;;;;;;5027990;28;20082;-61
2021/07/20 11:32:17;;;;;;;2.78;1.80;;;;;;;;;;5026965;28;20056;-61
2021/07/20 11:34:46;;;;;;;1.95;1.77;;;;;;;;;;5047276;28;22003;-61
2021/07/20 11:37:24;;;;;;;2.72;1.77;;;;;;;;;;5027214;28;20033;-61
2021/07/20 11:39:55;;;;;;;3.83;1.73;;;;;;;;;;5030096;28;20640;-62
2021/07/20 11:42:27;;;;;;;2.45;1.70;;;;;;;;;;5031161;28;20538;-61
2021/07/20 11:45:00;;;;;;;2.97;1.42;;;;;;;;;;5028461;28;20037;-62
2021/07/20 11:47:34;;;;;;;2.67;1.75;;;;;;;;;;5032302;28;20041;-61
2021/07/20 11:50:05;;;;;;;1.80;1.60;;;;;;;;;;5030815;28;20044;-61
2021/07/20 11:52:46;;;;;;;2.58;2.00;;;;;;;;;;5026968;28;20414;-60
2021/07/20 11:55:32;;;;;;;3.28;2.08;;;;;;;;;;5028567;28;20040;-61
2021/07/20 11:58:06;;;;;;;3.22;1.50;;;;;;;;;;5026008;28;20025;-61
2021/07/20 12:00:42;;;;;;;1.75;1.45;;;;;;;;;;5030802;28;20041;-61
2021/07/20 12:03:19;;;;;;;3.45;1.85;;;;;;;;;;5029155;28;20115;-61
2021/07/20 12:06:04;;;;;;;4.07;2.22;;;;;;;;;;5030476;28;20802;-62
2021/07/20 12:08:48;;;;;;;2.72;1.90;;;;;;;;;;4997937;28;20048;-60
2021/07/20 12:11:16;;;;;;;3.38;2.55;;;;;;;;;;5035104;28;20460;-62
2021/07/20 12:13:45;;;;;;;2.38;1.80;;;;;;;;;;5027096;28;20048;-61
2021/07/20 12:16:11;;;;;;;3.17;1.80;;;;;;;;;;5031268;28;20032;-61
2021/07/20 12:18:48;;;;;;;2.40;1.70;;;;;;;;;;5029319;28;20032;-61
2021/07/20 12:21:39;;;;;;;2.47;1.30;;;;;;;;;;5026071;28;20119;-61
2021/07/20 12:24:08;;;;;;;2.53;1.60;;;;;;;;;;5028599;28;20158;-62
2021/07/20 12:26:34;;;;;;;2.35;1.40;;;;;;;;;;5025279;28;20890;-61
2021/07/20 12:28:59;;;;;;;5.25;1.45;;;;;;;;;;4999651;28;20048;-61
2021/07/20 12:31:30;;;;;;;4.20;2.05;;;;;;;;;;5029643;28;20139;-61
2021/07/20 12:38:01;;;;;;;1.67;1.45;;;;;;;;;;5031045;28;20102;-61
2021/07/20 12:40:26;;;;;;;1.95;1.60;;;;;;;;;;5029924;28;20033;-61
2021/07/20 12:42:52;;;;;;;2.45;1.65;;;;;;;;;;5031660;28;20091;-61
2021/07/20 12:45:23;;;;;;;3.80;1.83;;;;;;;;;;5012386;28;20025;-62
2021/07/20 12:47:51;;;;;;;1.50;1.40;;;;;;;;;;5029708;28;20033;-62
2021/07/20 12:50:20;;;;;;;1.98;1.13;;;;;;;;;;5028985;28;20361;-61
2021/07/20 12:52:49;;;;;;;2.05;1.73;;;;;;;;;;5030413;28;20057;-61
2021/07/20 12:55:16;;;;;;;1.73;1.40;;;;;;;;;;5045940;28;20194;-61
2021/07/20 12:57:54;;;;;;;5.72;2.10;;;;;;;;;;5026324;28;20091;-61
2021/07/20 13:00:21;;;;;;;2.67;1.60;;;;;;;;;;5017559;28;20442;-62
2021/07/20 13:02:46;;;;;;;1.90;1.70;;;;;;;;;;5028144;28;20039;-62
2021/07/20 13:05:15;;;;;;;4.25;1.67;;;;;;;;;;5032809;28;20128;-62
2021/07/20 13:07:40;;;;;;;1.77;1.40;;;;;;;;;;5034072;28;20141;-61
2021/07/20 13:10:07;;;;;;;5.57;1.58;;;;;;;;;;5032645;28;20399;-60
2021/07/20 13:12:34;;;;;;;3.15;1.65;;;;;;;;;;5033447;28;20047;-60
2021/07/20 13:18:35;;;;;;;2.08;1.52;;;;;;;;;;5033690;28;20154;-61
2021/07/20 13:21:02;;;;;;;2.58;1.65;;;;;;;;;;5032722;28;20033;-61
2021/07/20 13:23:32;;;;;;;3.22;1.70;;;;;;;;;;5032016;28;20036;-61
2021/07/20 13:25:57;;;;;;;1.80;1.50;;;;;;;;;;5031942;28;20119;-61
2021/07/20 13:28:24;;;;;;;3.15;1.60;;;;;;;;;;5033318;28;20041;-61
2021/07/20 13:31:00;;;;;;;1.80;1.70;;;;;;;;;;5030419;28;20167;-61
2021/07/20 13:33:31;;;;;;;2.90;1.50;;;;;;;;;;5033080;28;20024;-61
2021/07/20 13:36:01;;;;;;;2.42;1.60;;;;;;;;;;5033466;28;20551;-61
2021/07/20 13:39:01;;;;;;;2.00;1.40;;;;;;;;;;5032949;28;20053;-62
2021/07/20 13:41:28;;;;;;;2.35;1.67;;;;;;;;;;5032587;28;20045;-61
2021/07/20 13:43:56;;;;;;;2.75;2.10;;;;;;;;;;5033065;28;20024;-61
2021/07/20 13:46:23;;;;;;;2.05;1.75;;;;;;;;;;5033499;28;20138;-61
2021/07/20 13:48:56;;;;;;;3.40;1.88;;;;;;;;;;5032990;28;20752;-60
2021/07/20 13:51:40;;;;;;;2.15;1.63;;;;;;;;;;5030589;28;20032;-61
2021/07/20 13:54:07;;;;;;;3.47;1.80;;;;;;;;;;5032882;28;20083;-60
2021/07/20 13:56:41;;;;;;;2.20;1.77;;;;;;;;;;5032783;28;20029;-60
2021/07/20 13:59:08;;;;;;;4.75;2.20;;;;;;;;;;5031907;28;20029;-60
2021/07/20 14:01:37;;;;;;;2.03;1.52;;;;;;;;;;5032187;28;20114;-60
2021/07/20 14:04:05;;;;;;;3.42;1.60;;;;;;;;;;5032483;28;20026;-60
2021/07/20 14:06:31;;;;;;;2.00;1.52;;;;;;;;;;5031407;28;20029;-61
2021/07/20 14:09:00;;;;;;;2.90;1.77;;;;;;;;;;5033246;28;20059;-61
2021/07/20 14:11:28;;;;;;;2.28;1.83;;;;;;;;;;5030156;28;20024;-61
2021/07/20 14:13:56;;;;;;;5.50;1.67;;;;;;;;;;5016564;28;20025;-60
2021/07/20 14:19:59;;;;;;;2.35;1.73;;;;;;;;;;5034223;28;20037;-60
2021/07/20 14:22:24;;;;;;;2.95;1.83;;;;;;;;;;5029907;28;20470;-61
2021/07/20 14:24:51;;;;;;;3.08;1.98;;;;;;;;;;5032265;28;20391;-61
2021/07/20 14:27:16;;;;;;;2.35;1.60;;;;;;;;;;5032935;28;21990;-61
2021/07/20 14:29:43;;;;;;;2.50;1.45;;;;;;;;;;5028185;28;20043;-61
2021/07/20 14:32:11;;;;;;;2.53;1.77;;;;;;;;;;5015737;28;21035;-61
2021/07/20 14:34:46;;;;;;;4.18;1.85;;;;;;;;;;5030387;28;20052;-60
2021/07/20 14:37:31;;;;;;;2.20;1.60;;;;;;;;;;5018667;28;20060;-60
2021/07/20 14:39:59;;;;;;;3.38;1.92;;;;;;;;;;5033184;28;20033;-61
2021/07/20 14:43:04;;;;;;;2.20;1.88;;;;;;;;;;5031845;28;20021;-61
2021/07/20 14:45:38;;;;;;;1.67;1.30;;;;;;;;;;5032659;28;20037;-61
2021/07/20 14:48:05;;;;;;;2.28;1.85;;;;;;;;;;5031082;28;20118;-60
2021/07/20 14:50:36;;;;;;;2.38;2.00;;;;;;;;;;5030731;28;20033;-60
2021/07/20 14:56:09;;;;;;;4.43;1.90;;;;;;;;;;5032582;28;20082;-60
2021/07/20 14:59:01;;;;;;;3.30;2.15;;;;;;;;;;5013059;28;20036;-61
2021/07/20 15:02:00;;;;;;;3.97;1.70;;;;;;;;;;5025576;28;20119;-60
2021/07/20 15:04:33;;;;;;;3.30;2.28;;;;;;;;;;5028632;28;20495;-60
2021/07/20 15:10:34;;;;;;;;;;;;;;;;;;5031401;28;20110;-60
2021/07/20 15:13:11;;;;;;;2.45;2.25;;;;;;;;;;5032674;28;20684;-61
2021/07/20 15:15:58;;;;;;;2.63;2.10;;;;;;;;;;5031777;28;21051;-61
2021/07/20 15:18:25;;;;;;;5.18;2.33;;;;;;;;;;5031823;28;21107;-60
2021/07/20 15:21:21;;;;;;;3.63;2.00;;;;;;;;;;5030518;28;20033;-59
2021/07/20 15:23:52;;;;;;;4.18;2.08;;;;;;;;;;5032303;28;20144;-60
2021/07/20 15:26:18;;;;;;;4.35;2.40;;;;;;;;;;5016968;28;20040;-60
2021/07/20 15:28:47;;;;;;;4.90;1.90;;;;;;;;;;5029672;28;20492;-59
2021/07/20 15:31:16;;;;;;;3.25;1.92;;;;;;;;;;5033744;28;20852;-60
2021/07/20 15:36:41;;;;;;;3.23;2.00;;;;;;;;;;5030506;28;19928;-61
2021/07/20 15:39:08;;;;;;;2.15;1.70;;;;;;;;;;5028873;28;20025;-60
2021/07/20 15:45:11;;;;;;;3.33;2.60;;;;;;;;;;5030050;28;20025;-60
2021/07/20 15:51:17;;;;;;;3.63;2.15;;;;;;;;;;5030262;28;20040;-60
2021/07/20 15:53:45;;;;;;;3.20;2.20;;;;;;;;;;5031098;28;20025;-60
2021/07/20 15:56:11;;;;;;;4.45;2.30;;;;;;;;;;5028001;28;20048;-60
2021/07/20 15:58:38;;;;;;;2.90;2.05;;;;;;;;;;5027031;28;20028;-60
2021/07/20 16:01:07;;;;;;;2.60;2.08;;;;;;;;;;5030754;28;20512;-60
2021/07/20 16:03:37;;;;;;;5.30;2.58;;;;;;;;;;5030662;28;20054;-58
2021/07/20 16:06:03;;;;;;;2.63;2.05;;;;;;;;;;5029091;28;20029;-59
2021/07/20 16:08:29;;;;;;;8.60;2.45;;;;;;;;;;5031616;28;20178;-59
2021/07/20 16:10:56;;;;;;;2.90;2.33;;;;;;;;;;5029965;28;20259;-60
2021/07/20 16:13:23;;;;;;;4.63;2.22;;;;;;;;;;5027575;28;20025;-60
2021/07/20 16:15:53;;;;;;;5.13;2.28;;;;;;;;;;5044250;28;20032;-60
2021/07/20 16:18:20;;;;;;;5.18;2.40;;;;;;;;;;5030179;28;20041;-60